sensor_id;sensor_type;location;lat;lon;timestamp;pressure;altitude;pressure_sealevel;temperature;humidity
64602;BME280;51013;42.630;23.192;2022-11-21T00:00:14;91108.59;;;10.22;100.00
64602;BME280;51013;42.630;23.192;2022-11-21T00:02:41;91078.09;;;10.07;100.00
64602;BME280;51013;42.630;23.192;2022-11-21T00:05:10;91103.38;;;10.29;100.00
64602;BME280;51013;42.630;23.192;2022-11-21T00:07:36;91051.69;;;9.81;100.00
64602;BME280;51013;42.630;23.192;2022-11-21T00:10:04;91073.53;;;9.96;100.00
64602;BME280;51013;42.630;23.192;2022-11-21T00:12:31;91108.88;;;10.10;100.00
64602;BME280;51013;42.630;23.192;2022-11-21T00:14:58;91099.16;;;10.14;100.00
64602;BME280;51013;42.630;23.192;2022-11-21T00:17:26;91092.44;;;10.16;100.00
64602;BME280;51013;42.630;23.192;2022-11-21T00:19:53;91078.22;;;10.21;100.00
64602;BME280;51013;42.630;23.192;2022-11-21T00:22:22;90979.56;;;9.61;100.00
64602;BME280;51013;42.630;23.192;2022-11-21T00:24:49;91092.13;;;10.29;100.00
64602;BME280;51013;42.630;23.192;2022-11-21T00:27:16;90979.16;;;9.59;100.00
64602;BME280;51013;42.630;23.192;2022-11-21T00:29:43;90858.41;;;8.82;100.00
64602;BME280;51013;42.630;23.192;2022-11-21T00:32:09;91027.41;;;9.95;100.00
64602;BME280;51013;42.630;23.192;2022-11-21T00:34:36;90995.09;;;9.80;100.00
64602;BME280;51013;42.630;23.192;2022-11-21T00:37:03;91044.47;;;10.23;100.00
64602;BME280;51013;42.630;23.192;2022-11-21T00:39:32;90897.69;;;9.30;100.00
64602;BME280;51013;42.630;23.192;2022-11-21T00:41:58;90987.09;;;9.66;100.00
64602;BME280;51013;42.630;23.192;2022-11-21T00:44:25;91036.13;;;10.07;100.00
64602;BME280;51013;42.630;23.192;2022-11-21T00:46:52;90999.63;;;9.83;100.00
64602;BME280;51013;42.630;23.192;2022-11-21T00:49:19;91042.47;;;10.06;100.00
64602;BME280;51013;42.630;23.192;2022-11-21T00:51:46;90891.44;;;8.97;100.00
64602;BME280;51013;42.630;23.192;2022-11-21T00:54:13;90881.75;;;9.01;100.00
64602;BME280;51013;42.630;23.192;2022-11-21T00:56:41;91031.19;;;9.98;100.00
64602;BME280;51013;42.630;23.192;2022-11-21T00:59:08;90954.41;;;9.53;100.00
64602;BME280;51013;42.630;23.192;2022-11-21T01:01:35;90951.44;;;9.54;100.00
64602;BME280;51013;42.630;23.192;2022-11-21T01:04:04;90953.81;;;9.70;100.00
64602;BME280;51013;42.630;23.192;2022-11-21T01:06:31;90881.97;;;9.27;100.00
64602;BME280;51013;42.630;23.192;2022-11-21T01:08:58;91012.59;;;10.21;100.00
64602;BME280;51013;42.630;23.192;2022-11-21T01:11:26;90910.19;;;9.48;100.00
64602;BME280;51013;42.630;23.192;2022-11-21T01:13:54;90849.16;;;8.95;100.00
64602;BME280;51013;42.630;23.192;2022-11-21T01:16:23;91021.31;;;10.32;100.00
64602;BME280;51013;42.630;23.192;2022-11-21T01:18:50;90862.94;;;9.37;100.00
64602;BME280;51013;42.630;23.192;2022-11-21T01:21:19;90885.63;;;9.70;100.00
64602;BME280;51013;42.630;23.192;2022-11-21T01:23:46;91018.81;;;10.54;100.00
64602;BME280;51013;42.630;23.192;2022-11-21T01:26:15;90864.56;;;9.56;100.00
64602;BME280;51013;42.630;23.192;2022-11-21T01:28:42;90863.50;;;9.68;100.00
64602;BME280;51013;42.630;23.192;2022-11-21T01:31:12;90959.03;;;10.29;100.00
64602;BME280;51013;42.630;23.192;2022-11-21T01:33:40;91009.56;;;10.81;99.09
64602;BME280;51013;42.630;23.192;2022-11-21T01:36:09;90991.94;;;10.86;99.61
64602;BME280;51013;42.630;23.192;2022-11-21T01:38:36;91007.69;;;10.86;99.65
64602;BME280;51013;42.630;23.192;2022-11-21T01:41:05;90970.13;;;10.71;99.11
64602;BME280;51013;42.630;23.192;2022-11-21T01:43:32;90885.91;;;10.24;98.85
64602;BME280;51013;42.630;23.192;2022-11-21T01:46:04;90976.16;;;10.82;98.47
64602;BME280;51013;42.630;23.192;2022-11-21T01:48:39;91010.72;;;10.98;98.22
64602;BME280;51013;42.630;23.192;2022-11-21T01:51:12;90842.97;;;9.80;97.81
64602;BME280;51013;42.630;23.192;2022-11-21T01:53:43;91010.75;;;11.06;97.97
64602;BME280;51013;42.630;23.192;2022-11-21T01:56:11;91006.66;;;11.12;97.36
64602;BME280;51013;42.630;23.192;2022-11-21T01:58:39;90972.47;;;10.97;94.99
64602;BME280;51013;42.630;23.192;2022-11-21T02:01:08;90862.22;;;10.13;96.39
64602;BME280;51013;42.630;23.192;2022-11-21T02:03:38;90829.19;;;9.98;96.02
64602;BME280;51013;42.630;23.192;2022-11-21T02:06:08;91005.16;;;11.18;94.39
64602;BME280;51013;42.630;23.192;2022-11-21T02:08:37;91010.03;;;11.16;94.57
64602;BME280;51013;42.630;23.192;2022-11-21T02:11:12;90982.97;;;11.05;94.88
64602;BME280;51013;42.630;23.192;2022-11-21T02:13:41;90959.28;;;10.83;93.68
64602;BME280;51013;42.630;23.192;2022-11-21T02:16:08;90835.28;;;10.23;94.43
64602;BME280;51013;42.630;23.192;2022-11-21T02:18:37;90827.34;;;10.09;95.01
64602;BME280;51013;42.630;23.192;2022-11-21T02:21:10;90988.63;;;11.21;95.62
64602;BME280;51013;42.630;23.192;2022-11-21T02:23:45;90998.06;;;11.26;95.40
64602;BME280;51013;42.630;23.192;2022-11-21T02:26:16;90837.50;;;10.14;95.91
64602;BME280;51013;42.630;23.192;2022-11-21T02:28:43;90995.41;;;11.18;96.20
64602;BME280;51013;42.630;23.192;2022-11-21T02:31:10;90946.53;;;10.92;95.97
64602;BME280;51013;42.630;23.192;2022-11-21T02:33:38;90773.56;;;9.60;96.78
64602;BME280;51013;42.630;23.192;2022-11-21T02:36:26;90990.13;;;11.11;96.13
64602;BME280;51013;42.630;23.192;2022-11-21T02:38:57;90988.63;;;11.10;96.87
64602;BME280;51013;42.630;23.192;2022-11-21T02:41:27;90839.25;;;9.85;97.05
64602;BME280;51013;42.630;23.192;2022-11-21T02:43:58;90999.88;;;11.11;98.15
64602;BME280;51013;42.630;23.192;2022-11-21T02:46:28;91003.28;;;11.15;97.68
64602;BME280;51013;42.630;23.192;2022-11-21T02:48:57;90897.97;;;10.39;98.66
64602;BME280;51013;42.630;23.192;2022-11-21T02:51:24;90932.22;;;10.72;98.73
64602;BME280;51013;42.630;23.192;2022-11-21T02:53:51;90986.72;;;11.00;99.14
64602;BME280;51013;42.630;23.192;2022-11-21T02:56:18;90925.84;;;10.69;99.23
64602;BME280;51013;42.630;23.192;2022-11-21T02:58:46;90961.59;;;10.99;98.91
64602;BME280;51013;42.630;23.192;2022-11-21T03:01:13;90967.56;;;10.96;99.54
64602;BME280;51013;42.630;23.192;2022-11-21T03:03:42;90961.59;;;11.06;98.80
64602;BME280;51013;42.630;23.192;2022-11-21T03:06:09;90783.78;;;9.79;97.81
64602;BME280;51013;42.630;23.192;2022-11-21T03:08:36;90962.34;;;11.03;95.75
64602;BME280;51013;42.630;23.192;2022-11-21T03:11:05;90962.31;;;10.99;95.77
64602;BME280;51013;42.630;23.192;2022-11-21T03:13:31;90771.78;;;9.78;95.37
64602;BME280;51013;42.630;23.192;2022-11-21T03:16:00;90757.13;;;9.63;95.50
64602;BME280;51013;42.630;23.192;2022-11-21T03:18:27;90833.78;;;10.22;94.90
64602;BME280;51013;42.630;23.192;2022-11-21T03:20:53;90898.06;;;10.61;94.76
64602;BME280;51013;42.630;23.192;2022-11-21T03:23:20;90961.22;;;11.08;94.63
64602;BME280;51013;42.630;23.192;2022-11-21T03:25:47;90921.38;;;10.84;93.30
64602;BME280;51013;42.630;23.192;2022-11-21T03:28:14;90968.72;;;11.16;92.27
64602;BME280;51013;42.630;23.192;2022-11-21T03:30:41;90962.38;;;11.17;92.08
64602;BME280;51013;42.630;23.192;2022-11-21T03:33:11;90943.19;;;11.06;92.04
64602;BME280;51013;42.630;23.192;2022-11-21T03:35:37;90811.94;;;9.97;91.40
64602;BME280;51013;42.630;23.192;2022-11-21T03:38:04;90978.13;;;11.25;91.82
64602;BME280;51013;42.630;23.192;2022-11-21T03:40:31;90871.75;;;10.54;90.77
64602;BME280;51013;42.630;23.192;2022-11-21T03:43:03;90965.00;;;11.25;91.17
64602;BME280;51013;42.630;23.192;2022-11-21T03:45:31;90903.75;;;10.88;91.97
64602;BME280;51013;42.630;23.192;2022-11-21T03:47:58;90964.97;;;11.21;92.10
64602;BME280;51013;42.630;23.192;2022-11-21T03:50:26;90965.75;;;11.21;92.07
64602;BME280;51013;42.630;23.192;2022-11-21T03:52:53;90716.97;;;9.41;93.00
64602;BME280;51013;42.630;23.192;2022-11-21T03:55:21;90812.00;;;10.15;93.92
64602;BME280;51013;42.630;23.192;2022-11-21T03:57:48;90941.69;;;11.01;93.63
64602;BME280;51013;42.630;23.192;2022-11-21T04:00:15;90817.28;;;10.26;94.43
64602;BME280;51013;42.630;23.192;2022-11-21T04:02:42;90951.06;;;11.06;95.01
64602;BME280;51013;42.630;23.192;2022-11-21T04:05:09;90688.84;;;9.31;96.32
64602;BME280;51013;42.630;23.192;2022-11-21T04:07:39;90954.47;;;11.03;95.67
64602;BME280;51013;42.630;23.192;2022-11-21T04:10:06;90893.59;;;10.69;95.14
64602;BME280;51013;42.630;23.192;2022-11-21T04:12:33;90902.97;;;10.77;95.95
64602;BME280;51013;42.630;23.192;2022-11-21T04:15:00;90924.78;;;11.02;96.84
64602;BME280;51013;42.630;23.192;2022-11-21T04:17:27;90943.56;;;11.08;96.27
64602;BME280;51013;42.630;23.192;2022-11-21T04:19:56;90940.94;;;10.97;96.24
64602;BME280;51013;42.630;23.192;2022-11-21T04:22:23;90892.06;;;10.68;96.37
64602;BME280;51013;42.630;23.192;2022-11-21T04:24:51;90907.47;;;10.73;96.15
64602;BME280;51013;42.630;23.192;2022-11-21T04:27:18;90783.84;;;9.94;95.36
64602;BME280;51013;42.630;23.192;2022-11-21T04:29:45;90948.81;;;10.97;95.70
64602;BME280;51013;42.630;23.192;2022-11-21T04:32:13;90803.34;;;10.00;95.35
64602;BME280;51013;42.630;23.192;2022-11-21T04:34:40;90851.03;;;10.27;95.45
64602;BME280;51013;42.630;23.192;2022-11-21T04:37:09;90911.94;;;10.61;95.91
64602;BME280;51013;42.630;23.192;2022-11-21T04:39:36;90962.28;;;10.89;96.29
64602;BME280;51013;42.630;23.192;2022-11-21T04:42:05;90966.81;;;10.92;96.21
64602;BME280;51013;42.630;23.192;2022-11-21T04:44:32;90736.28;;;9.18;97.09
64602;BME280;51013;42.630;23.192;2022-11-21T04:46:59;90972.41;;;10.83;96.88
64602;BME280;51013;42.630;23.192;2022-11-21T04:49:26;90712.72;;;9.15;96.54
64602;BME280;51013;42.630;23.192;2022-11-21T04:51:55;90960.38;;;10.78;96.25
64602;BME280;51013;42.630;23.192;2022-11-21T04:54:22;90967.16;;;10.87;96.40
64602;BME280;51013;42.630;23.192;2022-11-21T04:56:48;90856.59;;;10.11;95.95
64602;BME280;51013;42.630;23.192;2022-11-21T04:59:17;90963.78;;;10.86;95.83
64602;BME280;51013;42.630;23.192;2022-11-21T05:01:45;90962.28;;;10.89;96.04
64602;BME280;51013;42.630;23.192;2022-11-21T05:04:12;90827.28;;;9.91;95.29
64602;BME280;51013;42.630;23.192;2022-11-21T05:06:40;90931.81;;;10.66;95.37
64602;BME280;51013;42.630;23.192;2022-11-21T05:09:07;90817.88;;;9.79;94.98
64602;BME280;51013;42.630;23.192;2022-11-21T05:11:34;90820.88;;;9.78;95.16
64602;BME280;51013;42.630;23.192;2022-11-21T05:14:17;90932.88;;;10.43;94.90
64602;BME280;51013;42.630;23.192;2022-11-21T05:16:43;90912.59;;;10.37;95.71
64602;BME280;51013;42.630;23.192;2022-11-21T05:19:11;90855.72;;;9.82;94.31
64602;BME280;51013;42.630;23.192;2022-11-21T05:21:38;90863.34;;;10.12;94.99
64602;BME280;51013;42.630;23.192;2022-11-21T05:24:05;90958.09;;;10.62;94.44
64602;BME280;51013;42.630;23.192;2022-11-21T05:26:33;90871.22;;;10.09;94.07
64602;BME280;51013;42.630;23.192;2022-11-21T05:29:00;90759.59;;;9.34;94.54
64602;BME280;51013;42.630;23.192;2022-11-21T05:31:28;90948.28;;;10.52;94.81
64602;BME280;51013;42.630;23.192;2022-11-21T05:33:55;90974.63;;;10.74;94.12
64602;BME280;51013;42.630;23.192;2022-11-21T05:36:23;90800.84;;;9.48;94.22
64602;BME280;51013;42.630;23.192;2022-11-21T05:38:50;90827.97;;;9.74;93.30
64602;BME280;51013;42.630;23.192;2022-11-21T05:41:17;90836.97;;;9.76;94.04
64602;BME280;51013;42.630;23.192;2022-11-21T05:43:44;91004.31;;;10.81;93.70
64602;BME280;51013;42.630;23.192;2022-11-21T05:46:14;90873.50;;;10.14;92.31
64602;BME280;51013;42.630;23.192;2022-11-21T05:48:44;90900.50;;;10.18;92.24
64602;BME280;51013;42.630;23.192;2022-11-21T05:51:12;90784.25;;;9.22;92.54
64602;BME280;51013;42.630;23.192;2022-11-21T05:53:39;91026.84;;;10.90;93.08
64602;BME280;51013;42.630;23.192;2022-11-21T05:56:09;90892.59;;;10.11;92.56
64602;BME280;51013;42.630;23.192;2022-11-21T05:58:37;91019.38;;;10.95;92.66
64602;BME280;51013;42.630;23.192;2022-11-21T06:01:06;90963.69;;;10.57;92.75
64602;BME280;51013;42.630;23.192;2022-11-21T06:03:35;91028.38;;;10.98;92.68
64602;BME280;51013;42.630;23.192;2022-11-21T06:06:05;90998.63;;;10.69;91.73
64602;BME280;51013;42.630;23.192;2022-11-21T06:08:33;91056.91;;;10.99;91.15
64602;BME280;51013;42.630;23.192;2022-11-21T06:11:01;90944.75;;;10.23;90.35
64602;BME280;51013;42.630;23.192;2022-11-21T06:13:28;91054.31;;;11.03;90.57
64602;BME280;51013;42.630;23.192;2022-11-21T06:15:59;91030.56;;;10.78;90.21
64602;BME280;51013;42.630;23.192;2022-11-21T06:18:26;91076.41;;;10.98;89.98
64602;BME280;51013;42.630;23.192;2022-11-21T06:20:59;90980.88;;;10.40;90.34
64602;BME280;51013;42.630;23.192;2022-11-21T06:23:28;91035.75;;;10.63;90.10
64602;BME280;51013;42.630;23.192;2022-11-21T06:25:56;90788.97;;;9.02;90.45
64602;BME280;51013;42.630;23.192;2022-11-21T06:28:23;91077.91;;;10.96;90.46
64602;BME280;51013;42.630;23.192;2022-11-21T06:30:50;91082.44;;;11.02;90.14
64602;BME280;51013;42.630;23.192;2022-11-21T06:33:18;91077.59;;;11.01;91.39
64602;BME280;51013;42.630;23.192;2022-11-21T06:35:46;91038.78;;;10.73;91.22
64602;BME280;51013;42.630;23.192;2022-11-21T06:38:13;91075.28;;;10.92;92.17
64602;BME280;51013;42.630;23.192;2022-11-21T06:40:44;91075.25;;;10.89;92.15
64602;BME280;51013;42.630;23.192;2022-11-21T06:43:11;91006.28;;;10.29;90.91
64602;BME280;51013;42.630;23.192;2022-11-21T06:45:38;91074.47;;;10.85;91.25
64602;BME280;51013;42.630;23.192;2022-11-21T06:48:06;91089.47;;;10.77;92.28
64602;BME280;51013;42.630;23.192;2022-11-21T06:50:33;91076.25;;;10.59;91.64
64602;BME280;51013;42.630;23.192;2022-11-21T06:53:00;91064.09;;;10.40;90.73
64602;BME280;51013;42.630;23.192;2022-11-21T06:55:27;91115.75;;;10.77;92.44
64602;BME280;51013;42.630;23.192;2022-11-21T06:57:57;91119.84;;;10.74;93.09
64602;BME280;51013;42.630;23.192;2022-11-21T07:00:25;91119.06;;;10.67;94.47
64602;BME280;51013;42.630;23.192;2022-11-21T07:02:52;91107.56;;;10.34;96.84
64602;BME280;51013;42.630;23.192;2022-11-21T07:05:20;91156.84;;;10.51;96.98
64602;BME280;51013;42.630;23.192;2022-11-21T07:07:47;91145.19;;;10.49;98.57
64602;BME280;51013;42.630;23.192;2022-11-21T07:10:14;91068.47;;;9.77;96.89
64602;BME280;51013;42.630;23.192;2022-11-21T07:12:41;91140.16;;;9.88;98.01
64602;BME280;51013;42.630;23.192;2022-11-21T07:15:26;91131.63;;;9.61;99.81
64602;BME280;51013;42.630;23.192;2022-11-21T07:17:53;91161.09;;;9.47;100.00
64602;BME280;51013;42.630;23.192;2022-11-21T07:20:21;91193.56;;;9.69;100.00
64602;BME280;51013;42.630;23.192;2022-11-21T07:22:53;91190.50;;;9.63;100.00
64602;BME280;51013;42.630;23.192;2022-11-21T07:25:20;91114.88;;;9.01;100.00
64602;BME280;51013;42.630;23.192;2022-11-21T07:27:46;91078.78;;;8.31;100.00
64602;BME280;51013;42.630;23.192;2022-11-21T07:30:14;90956.38;;;7.37;100.00
64602;BME280;51013;42.630;23.192;2022-11-21T07:32:42;91188.69;;;8.80;100.00
64602;BME280;51013;42.630;23.192;2022-11-21T07:35:09;91256.06;;;9.10;100.00
64602;BME280;51013;42.630;23.192;2022-11-21T07:37:37;91228.13;;;8.91;100.00
64602;BME280;51013;42.630;23.192;2022-11-21T07:40:06;91259.00;;;9.05;100.00
64602;BME280;51013;42.630;23.192;2022-11-21T07:42:33;91032.94;;;7.18;100.00
64602;BME280;51013;42.630;23.192;2022-11-21T07:45:00;91259.22;;;8.70;100.00
64602;BME280;51013;42.630;23.192;2022-11-21T07:47:27;91279.13;;;8.51;100.00
64602;BME280;51013;42.630;23.192;2022-11-21T07:49:56;91248.69;;;8.00;100.00
64602;BME280;51013;42.630;23.192;2022-11-21T07:52:24;91285.16;;;8.13;100.00
64602;BME280;51013;42.630;23.192;2022-11-21T07:54:54;91302.44;;;7.98;100.00
64602;BME280;51013;42.630;23.192;2022-11-21T07:57:21;91296.19;;;7.83;100.00
64602;BME280;51013;42.630;23.192;2022-11-21T07:59:50;91150.28;;;6.72;100.00
64602;BME280;51013;42.630;23.192;2022-11-21T08:02:17;91175.34;;;6.76;100.00
64602;BME280;51013;42.630;23.192;2022-11-21T08:04:45;91318.41;;;7.38;100.00
64602;BME280;51013;42.630;23.192;2022-11-21T08:07:13;91316.50;;;7.35;100.00
64602;BME280;51013;42.630;23.192;2022-11-21T08:09:40;91196.31;;;6.29;100.00
64602;BME280;51013;42.630;23.192;2022-11-21T08:12:08;91322.38;;;6.96;100.00
64602;BME280;51013;42.630;23.192;2022-11-21T08:14:35;91337.34;;;6.99;100.00
64602;BME280;51013;42.630;23.192;2022-11-21T08:17:03;91223.78;;;6.26;100.00
64602;BME280;51013;42.630;23.192;2022-11-21T08:19:30;91298.53;;;6.66;100.00
64602;BME280;51013;42.630;23.192;2022-11-21T08:21:57;91157.47;;;5.79;100.00
64602;BME280;51013;42.630;23.192;2022-11-21T08:24:26;91316.91;;;6.70;100.00
64602;BME280;51013;42.630;23.192;2022-11-21T08:26:53;91318.88;;;6.45;100.00
64602;BME280;51013;42.630;23.192;2022-11-21T08:29:20;91277.78;;;6.10;100.00
64602;BME280;51013;42.630;23.192;2022-11-21T08:31:46;91236.16;;;5.85;100.00
64602;BME280;51013;42.630;23.192;2022-11-21T08:34:13;91095.00;;;4.79;100.00
64602;BME280;51013;42.630;23.192;2022-11-21T08:36:40;91369.91;;;6.58;100.00
64602;BME280;51013;42.630;23.192;2022-11-21T08:39:08;91332.34;;;6.31;100.00
64602;BME280;51013;42.630;23.192;2022-11-21T08:41:36;91380.13;;;6.63;100.00
64602;BME280;51013;42.630;23.192;2022-11-21T08:44:21;91290.16;;;6.13;100.00
64602;BME280;51013;42.630;23.192;2022-11-21T08:46:48;91382.31;;;6.77;100.00
64602;BME280;51013;42.630;23.192;2022-11-21T08:49:14;91382.81;;;6.67;100.00
64602;BME280;51013;42.630;23.192;2022-11-21T08:51:42;91347.84;;;6.39;100.00
64602;BME280;51013;42.630;23.192;2022-11-21T08:54:09;91382.88;;;6.54;100.00
64602;BME280;51013;42.630;23.192;2022-11-21T08:56:37;91195.28;;;5.29;100.00
64602;BME280;51013;42.630;23.192;2022-11-21T08:59:04;91367.72;;;6.44;100.00
64602;BME280;51013;42.630;23.192;2022-11-21T09:01:32;91389.09;;;6.50;100.00
64602;BME280;51013;42.630;23.192;2022-11-21T09:03:59;91359.25;;;6.19;100.00
64602;BME280;51013;42.630;23.192;2022-11-21T09:06:25;91392.13;;;6.24;100.00
64602;BME280;51013;42.630;23.192;2022-11-21T09:08:53;91373.41;;;6.34;100.00
64602;BME280;51013;42.630;23.192;2022-11-21T09:11:20;91385.84;;;6.25;100.00
64602;BME280;51013;42.630;23.192;2022-11-21T09:13:50;91383.03;;;6.17;100.00
64602;BME280;51013;42.630;23.192;2022-11-21T09:16:31;91244.31;;;5.27;100.00
64602;BME280;51013;42.630;23.192;2022-11-21T09:19:15;91287.84;;;5.55;100.00
64602;BME280;51013;42.630;23.192;2022-11-21T09:21:42;91312.13;;;5.71;100.00
64602;BME280;51013;42.630;23.192;2022-11-21T09:24:10;91373.50;;;6.09;100.00
64602;BME280;51013;42.630;23.192;2022-11-21T09:26:36;91386.81;;;6.20;100.00
64602;BME280;51013;42.630;23.192;2022-11-21T09:29:05;91298.91;;;5.64;100.00
64602;BME280;51013;42.630;23.192;2022-11-21T09:31:35;91257.84;;;5.33;100.00
64602;BME280;51013;42.630;23.192;2022-11-21T09:34:02;91358.97;;;5.96;100.00
64602;BME280;51013;42.630;23.192;2022-11-21T09:36:30;91391.09;;;6.12;100.00
64602;BME280;51013;42.630;23.192;2022-11-21T09:38:57;91364.50;;;6.07;100.00
64602;BME280;51013;42.630;23.192;2022-11-21T09:41:29;91321.22;;;5.77;100.00
64602;BME280;51013;42.630;23.192;2022-11-21T09:44:24;91304.31;;;5.71;100.00
64602;BME280;51013;42.630;23.192;2022-11-21T09:47:14;91291.59;;;5.82;100.00
64602;BME280;51013;42.630;23.192;2022-11-21T09:49:45;91378.28;;;6.35;100.00
64602;BME280;51013;42.630;23.192;2022-11-21T09:52:14;91382.09;;;6.38;100.00
64602;BME280;51013;42.630;23.192;2022-11-21T09:54:47;91384.88;;;6.45;100.00
64602;BME280;51013;42.630;23.192;2022-11-21T09:57:18;91391.88;;;6.41;100.00
64602;BME280;51013;42.630;23.192;2022-11-21T09:59:49;91395.69;;;6.31;100.00
64602;BME280;51013;42.630;23.192;2022-11-21T10:02:19;91395.03;;;6.34;100.00
64602;BME280;51013;42.630;23.192;2022-11-21T10:04:48;91381.56;;;6.32;100.00
64602;BME280;51013;42.630;23.192;2022-11-21T10:07:20;91237.16;;;5.24;100.00
64602;BME280;51013;42.630;23.192;2022-11-21T10:10:03;91358.88;;;6.05;100.00
64602;BME280;51013;42.630;23.192;2022-11-21T10:12:39;91402.38;;;6.45;100.00
64602;BME280;51013;42.630;23.192;2022-11-21T10:15:34;91395.75;;;6.47;100.00
64602;BME280;51013;42.630;23.192;2022-11-21T10:18:26;91399.91;;;6.36;100.00
64602;BME280;51013;42.630;23.192;2022-11-21T10:21:05;91404.66;;;6.46;100.00
64602;BME280;51013;42.630;23.192;2022-11-21T10:23:50;91394.97;;;6.47;100.00
64602;BME280;51013;42.630;23.192;2022-11-21T10:26:22;91223.06;;;5.25;100.00
64602;BME280;51013;42.630;23.192;2022-11-21T10:28:59;91398.00;;;6.49;100.00
64602;BME280;51013;42.630;23.192;2022-11-21T10:31:34;91400.97;;;6.47;100.00
64602;BME280;51013;42.630;23.192;2022-11-21T10:34:09;91360.53;;;6.25;100.00
64602;BME280;51013;42.630;23.192;2022-11-21T10:36:38;91392.97;;;6.56;100.00
64602;BME280;51013;42.630;23.192;2022-11-21T10:39:12;91251.16;;;5.60;99.36
64602;BME280;51013;42.630;23.192;2022-11-21T10:41:47;91217.66;;;5.46;100.00
64602;BME280;51013;42.630;23.192;2022-11-21T10:44:24;91370.31;;;6.44;99.50
64602;BME280;51013;42.630;23.192;2022-11-21T10:47:17;91215.22;;;5.37;100.00
64602;BME280;51013;42.630;23.192;2022-11-21T10:49:57;91402.25;;;6.53;100.00
64602;BME280;51013;42.630;23.192;2022-11-21T10:52:27;91102.31;;;4.61;100.00
64602;BME280;51013;42.630;23.192;2022-11-21T10:55:08;91397.03;;;6.53;100.00
64602;BME280;51013;42.630;23.192;2022-11-21T10:57:39;91194.69;;;5.08;100.00
64602;BME280;51013;42.630;23.192;2022-11-21T11:00:27;91408.00;;;6.59;100.00
64602;BME280;51013;42.630;23.192;2022-11-21T11:03:02;91365.00;;;6.40;100.00
64602;BME280;51013;42.630;23.192;2022-11-21T11:05:32;91412.38;;;6.71;100.00
64602;BME280;51013;42.630;23.192;2022-11-21T11:08:04;91372.31;;;6.35;100.00
64602;BME280;51013;42.630;23.192;2022-11-21T11:10:32;91314.81;;;5.75;100.00
64602;BME280;51013;42.630;23.192;2022-11-21T11:13:00;91360.25;;;6.14;100.00
64602;BME280;51013;42.630;23.192;2022-11-21T11:15:53;91386.69;;;6.29;100.00
64602;BME280;51013;42.630;23.192;2022-11-21T11:18:22;91418.97;;;6.52;100.00
64602;BME280;51013;42.630;23.192;2022-11-21T11:20:49;91354.94;;;6.11;100.00
64602;BME280;51013;42.630;23.192;2022-11-21T11:23:23;91410.63;;;6.47;100.00
64602;BME280;51013;42.630;23.192;2022-11-21T11:25:52;91375.75;;;6.23;100.00
64602;BME280;51013;42.630;23.192;2022-11-21T11:28:19;91413.00;;;6.52;100.00
64602;BME280;51013;42.630;23.192;2022-11-21T11:30:49;91416.03;;;6.54;100.00
64602;BME280;51013;42.630;23.192;2022-11-21T11:33:33;91359.94;;;6.32;100.00
64602;BME280;51013;42.630;23.192;2022-11-21T11:36:13;91371.22;;;6.36;100.00
64602;BME280;51013;42.630;23.192;2022-11-21T11:38:47;91356.91;;;6.30;100.00
64602;BME280;51013;42.630;23.192;2022-11-21T11:41:27;91416.94;;;6.74;100.00
64602;BME280;51013;42.630;23.192;2022-11-21T11:44:30;91300.28;;;5.74;100.00
64602;BME280;51013;42.630;23.192;2022-11-21T11:47:23;91364.56;;;6.38;100.00
64602;BME280;51013;42.630;23.192;2022-11-21T11:50:01;91297.97;;;5.85;100.00
64602;BME280;51013;42.630;23.192;2022-11-21T11:52:45;91298.69;;;5.97;100.00
64602;BME280;51013;42.630;23.192;2022-11-21T11:55:18;91399.56;;;6.66;100.00
64602;BME280;51013;42.630;23.192;2022-11-21T11:57:49;91395.72;;;6.75;100.00
64602;BME280;51013;42.630;23.192;2022-11-21T12:00:29;91342.38;;;6.60;100.00
64602;BME280;51013;42.630;23.192;2022-11-21T12:03:02;91235.06;;;5.98;99.87
64602;BME280;51013;42.630;23.192;2022-11-21T12:05:31;91335.91;;;6.54;98.15
64602;BME280;51013;42.630;23.192;2022-11-21T12:08:06;91339.78;;;6.60;99.70
64602;BME280;51013;42.630;23.192;2022-11-21T12:10:43;91342.97;;;6.54;97.89
64602;BME280;51013;42.630;23.192;2022-11-21T12:13:33;91364.97;;;6.69;96.15
64602;BME280;51013;42.630;23.192;2022-11-21T12:16:04;91410.41;;;7.12;95.48
64602;BME280;51013;42.630;23.192;2022-11-21T12:18:40;91421.09;;;7.07;96.03
64602;BME280;51013;42.630;23.192;2022-11-21T12:21:14;91240.47;;;5.93;97.65
64602;BME280;51013;42.630;23.192;2022-11-21T12:23:45;91414.44;;;7.25;95.49
64602;BME280;51013;42.630;23.192;2022-11-21T12:26:25;91410.03;;;7.29;95.24
64602;BME280;51013;42.630;23.192;2022-11-21T12:29:03;91376.25;;;6.89;94.22
64602;BME280;51013;42.630;23.192;2022-11-21T12:31:44;91409.47;;;7.20;94.76
64602;BME280;51013;42.630;23.192;2022-11-21T12:34:28;91406.50;;;7.21;96.52
64602;BME280;51013;42.630;23.192;2022-11-21T12:37:03;91291.09;;;6.36;97.07
64602;BME280;51013;42.630;23.192;2022-11-21T12:39:49;91411.50;;;7.27;93.00
64602;BME280;51013;42.630;23.192;2022-11-21T12:42:40;91354.34;;;6.93;96.45
64602;BME280;51013;42.630;23.192;2022-11-21T12:45:31;91236.16;;;6.13;94.75
64602;BME280;51013;42.630;23.192;2022-11-21T12:48:26;91405.84;;;7.40;93.86
64602;BME280;51013;42.630;23.192;2022-11-21T12:54:36;91382.75;;;7.27;92.51
64602;BME280;51013;42.630;23.192;2022-11-21T12:57:08;91392.03;;;7.24;94.34
64602;BME280;51013;42.630;23.192;2022-11-21T12:59:56;91161.06;;;5.59;94.18
64602;BME280;51013;42.630;23.192;2022-11-21T13:02:29;91422.34;;;7.29;94.65
64602;BME280;51013;42.630;23.192;2022-11-21T13:05:01;91371.44;;;6.75;93.42
64602;BME280;51013;42.630;23.192;2022-11-21T13:07:30;91425.56;;;7.06;94.20
64602;BME280;51013;42.630;23.192;2022-11-21T13:10:00;91431.00;;;6.85;95.86